Airfield :
LOGIN :

Register | Disclaimer

   EN    FR    IT 

 










Legend :    VFR   Marginal VFR   IFR   Intensive IFR   Very Intensive IFR
Visi :
Ceiling :
>= 8 km
>= 3000ft
5 to 8 km
1000 to 3000 ft
1500m to 5 km
500 to 1000 ft
800 to 1500m
200 to 500 ft
< 800m
< 200 ft
Symbols :   Thunderstorms  Fog  Heavy snow  Heavy precipitations  Wind > 20 kt
SIGMETs :     Misc.  Thunderstorms  Icing  Turbulence  Mountain Waves  Volcanic Ashes






- Airport Elevation : 1079 ft


ETIK - Illesheim Air Base

CURRENT METAR :
  • 080556Z AUTO 00000KT 9999 CLR 04/04 A3033 RMK AO2 SLP276 T00350035 10054 20007 55003 $

EXPIRED METARs :
  • 080456Z AUTO 00000KT 9999 CLR 01/01 A3034 RMK AO2 SLP280 T00120012 $
  • 080356Z AUTO 00000KT 9999 CLR 01/01 A3033 RMK AO2 SLP275 T00140014 $

TAF TAF ETIK
Valid from the 07 at 22:00 until the 09 at 04:00 UTC


072207Z 0722/0904 09006KT 9999 SKC QNH3021INS
BECMG 0816/0817 02003KT 9999 FEW060 QNH3022INS
BECMG 0900/0901 25004KT 9999 SKC QNH3019INS TX21/0814Z TN04/0805Z



MET'MAP, your aeronautical weather chart ! - Copyright ORBIFLY December 2007 - Disclaimer

ORBIFLY MET'MAP TEAM :

Programming & Development : Alexandra Zaïnal
Concept & original design : Baudouin d'Aumeries
Assistance for programming : Marc-Olivier Méhu
Technical & hardware support : Manuel Goepfert

Contact : metmap@orbifly.com




SOURCES & CREDITS :

   NOAA